createdAt,value
2018-05-13T00:00:29.516Z,29.01
2018-05-13T00:03:03.936Z,28.96
2018-05-13T00:05:35.417Z,28.83
2018-05-13T00:08:07.384Z,28.75
2018-05-13T00:10:39.107Z,28.42
2018-05-13T00:13:10.532Z,28.37
2018-05-13T00:15:42.038Z,28.03
2018-05-13T00:18:13.562Z,27.99
2018-05-13T00:20:46.322Z,27.68
2018-05-13T00:23:17.778Z,27.76
2018-05-13T00:25:49.366Z,27.67
2018-05-13T00:28:21.165Z,27.55
2018-05-13T00:30:52.690Z,27.67
2018-05-13T00:33:24.149Z,27.44
2018-05-13T00:35:55.821Z,27.46
2018-05-13T00:38:27.301Z,28.46
2018-05-13T00:40:59.686Z,28.18
2018-05-13T00:43:31.039Z,28.05
2018-05-13T00:46:03.949Z,27.87
2018-05-13T00:48:35.388Z,27.87
2018-05-13T00:51:07.292Z,27.78
2018-05-13T00:53:39.214Z,27.85
2018-05-13T00:56:10.789Z,27.86
2018-05-13T00:58:42.206Z,27.97
2018-05-13T01:01:13.673Z,28.07
2018-05-13T01:03:45.398Z,28.10
2018-05-13T01:06:16.983Z,28.15
2018-05-13T01:08:48.414Z,28.25
2018-05-13T01:11:21.336Z,28.24
2018-05-13T01:13:52.753Z,28.45
2018-05-13T01:16:24.251Z,28.44
2018-05-13T01:18:56.193Z,28.24
2018-05-13T01:21:27.660Z,28.21
2018-05-13T01:23:59.244Z,28.19
2018-05-13T01:26:30.701Z,28.26
2018-05-13T01:29:03.251Z,28.28
2018-05-13T01:31:34.655Z,28.21
2018-05-13T01:34:06.528Z,28.14
2018-05-13T01:36:38.464Z,28.03
2018-05-13T01:39:10.568Z,28.01
2018-05-13T01:41:42.187Z,27.98
2018-05-13T01:44:13.787Z,27.95
2018-05-13T01:46:45.200Z,27.96
2018-05-13T01:49:16.687Z,28.03
2018-05-13T01:51:48.513Z,28.00
2018-05-13T01:54:20.023Z,28.00
2018-05-13T01:56:51.597Z,28.01
2018-05-13T01:59:23.118Z,28.12
2018-05-13T02:01:54.587Z,27.96
2018-05-13T02:04:27.447Z,28.06
2018-05-13T02:06:58.863Z,28.00
2018-05-13T02:09:30.367Z,28.00
2018-05-13T02:12:02.469Z,28.02
2018-05-13T02:14:33.912Z,28.07
2018-05-13T02:17:05.439Z,28.07
2018-05-13T02:19:36.820Z,28.12
2018-05-13T02:22:08.933Z,28.18
2018-05-13T02:24:40.350Z,28.14
2018-05-13T02:27:12.591Z,28.15
2018-05-13T02:29:44.085Z,28.13
2018-05-13T02:32:15.760Z,28.32
2018-05-13T02:34:47.301Z,28.40
2018-05-13T02:37:20.256Z,28.46
2018-05-13T02:39:51.843Z,28.44
2018-05-13T02:42:23.272Z,28.55
2018-05-13T02:44:55.159Z,28.66
2018-05-13T02:47:26.573Z,28.71
2018-05-13T02:49:58.079Z,28.75
2018-05-13T02:52:30.091Z,28.78
2018-05-13T02:55:01.594Z,28.80
2018-05-13T02:57:32.988Z,28.90
2018-05-13T03:00:06.608Z,29.11
2018-05-13T03:02:38.099Z,28.97
2018-05-13T03:05:09.509Z,28.83
2018-05-13T03:07:41.293Z,28.85
2018-05-13T03:10:12.851Z,28.87
2018-05-13T03:12:44.367Z,28.89
2018-05-13T03:15:17.323Z,28.89
2018-05-13T03:17:49.647Z,28.86
2018-05-13T03:20:21.448Z,28.86
2018-05-13T03:22:54.065Z,28.90
2018-05-13T03:25:25.569Z,28.78
2018-05-13T03:27:57.044Z,28.96
2018-05-13T03:30:28.571Z,28.88
2018-05-13T03:32:59.993Z,28.96
2018-05-13T03:35:31.575Z,28.95
2018-05-13T03:38:04.553Z,28.94
2018-05-13T03:40:36.157Z,28.83
2018-05-13T03:43:07.654Z,28.82
2018-05-13T03:45:39.504Z,28.86
2018-05-13T03:48:10.968Z,28.83
2018-05-13T03:50:42.583Z,28.73
2018-05-13T03:53:14.505Z,28.74
2018-05-13T03:55:45.915Z,28.71
2018-05-13T03:58:17.682Z,28.65
2018-05-13T04:00:49.123Z,28.53
2018-05-13T04:03:20.814Z,28.54
2018-05-13T04:05:52.221Z,28.61
2018-05-13T04:09:15.238Z,28.81
2018-05-13T04:12:32.639Z,28.94
2018-05-13T04:15:19.806Z,28.95
2018-05-13T04:17:51.319Z,29.00
2018-05-13T04:20:23.151Z,29.24
2018-05-13T04:22:54.599Z,29.26
2018-05-13T04:25:26.528Z,29.30
2018-05-13T04:27:58.444Z,29.39
2018-05-13T04:30:29.931Z,29.42
2018-05-13T04:33:01.377Z,29.57
2018-05-13T04:35:33.208Z,29.73
2018-05-13T04:38:04.643Z,29.86
2018-05-13T04:40:36.446Z,29.83
2018-05-13T04:43:07.855Z,29.78
2018-05-13T04:45:39.342Z,29.80
2018-05-13T04:48:11.190Z,29.85
2018-05-13T04:50:42.647Z,29.77
2018-05-13T04:53:14.110Z,29.94
2018-05-13T04:55:45.500Z,30.03
2018-05-13T04:58:17.011Z,29.96
2018-05-13T05:00:48.473Z,30.05
2018-05-13T05:03:20.175Z,30.08
2018-05-13T05:05:51.673Z,30.32
2018-05-13T05:08:23.091Z,30.45
2018-05-13T05:10:54.692Z,30.42
2018-05-13T05:13:26.770Z,30.37
2018-05-13T05:15:58.248Z,30.39
2018-05-13T05:18:30.091Z,30.40
2018-05-13T05:21:02.184Z,30.35
2018-05-13T05:23:34.866Z,30.44
2018-05-13T05:26:06.470Z,30.44
2018-05-13T05:28:39.072Z,30.40
2018-05-13T05:31:10.811Z,30.48
2018-05-13T05:33:42.465Z,30.42
2018-05-13T05:36:13.856Z,30.54
2018-05-13T05:38:45.805Z,30.68
2018-05-13T05:41:17.888Z,30.63
2018-05-13T05:43:52.158Z,30.69
2018-05-13T05:46:24.416Z,30.53
2018-05-13T05:48:55.889Z,30.65
2018-05-13T05:51:27.889Z,30.77
2018-05-13T05:53:59.373Z,30.70
2018-05-13T05:56:30.921Z,30.90
2018-05-13T05:59:02.540Z,31.21
2018-05-13T06:01:34.399Z,31.33
2018-05-13T06:04:05.952Z,31.47
2018-05-13T06:06:37.413Z,31.54
2018-05-13T06:09:09.625Z,31.68
2018-05-13T06:11:41.076Z,31.43
2018-05-13T06:14:12.555Z,31.40
2018-05-13T06:16:44.567Z,31.48
2018-05-13T06:19:16.111Z,31.21
2018-05-13T06:21:47.962Z,31.21
2018-05-13T06:24:19.460Z,31.29
2018-05-13T06:26:51.710Z,31.28
2018-05-13T06:29:23.153Z,31.37
2018-05-13T06:31:55.181Z,31.28
2018-05-13T06:34:28.275Z,31.27
2018-05-13T06:36:59.846Z,31.25
2018-05-13T06:39:31.314Z,31.19
2018-05-13T06:42:03.139Z,31.26
2018-05-13T06:44:34.650Z,31.20
2018-05-13T06:47:06.277Z,31.29
2018-05-13T06:49:37.797Z,31.20
2018-05-13T06:52:09.339Z,31.26
2018-05-13T06:54:40.924Z,31.13
2018-05-13T06:57:12.867Z,31.08
2018-05-13T06:59:44.425Z,31.14
2018-05-13T07:02:16.157Z,31.18
2018-05-13T07:04:48.734Z,31.06
2018-05-13T07:07:20.160Z,31.34
2018-05-13T07:09:52.338Z,31.17
2018-05-13T07:12:24.244Z,31.17
2018-05-13T07:14:57.017Z,31.18
2018-05-13T07:17:28.656Z,31.19
2018-05-13T07:20:00.521Z,31.28
2018-05-13T07:22:32.098Z,31.08
2018-05-13T07:25:03.581Z,31.46
2018-05-13T07:27:36.406Z,31.41
2018-05-13T07:30:08.238Z,31.45
2018-05-13T07:32:39.875Z,31.41
2018-05-13T07:35:11.677Z,31.32
2018-05-13T07:37:43.138Z,31.30
2018-05-13T07:40:14.642Z,31.39
2018-05-13T07:42:46.284Z,31.38
2018-05-13T07:45:17.905Z,31.36
2018-05-13T07:47:51.470Z,31.47
2018-05-13T07:50:22.918Z,31.48
2018-05-13T07:52:55.009Z,31.44
2018-05-13T07:55:26.870Z,31.51
2018-05-13T07:57:58.858Z,31.55
2018-05-13T08:00:30.492Z,31.46
2018-05-13T08:03:02.432Z,31.60
2018-05-13T08:05:33.905Z,31.52
2018-05-13T08:08:05.576Z,31.40
2018-05-13T08:10:37.799Z,31.48
2018-05-13T08:13:09.449Z,31.85
2018-05-13T08:15:41.265Z,32.01
2018-05-13T08:18:13.320Z,31.93
2018-05-13T08:20:44.815Z,31.76
2018-05-13T08:23:16.253Z,31.98
2018-05-13T08:25:49.065Z,32.72
2018-05-13T08:28:20.627Z,32.79
2018-05-13T08:30:53.617Z,33.28
2018-05-13T08:33:25.505Z,33.17
2018-05-13T08:35:59.162Z,33.15
2018-05-13T08:38:30.758Z,33.22
2018-05-13T08:41:02.909Z,33.43
2018-05-13T08:43:34.900Z,34.33
2018-05-13T08:46:06.485Z,33.88
2018-05-13T08:48:38.011Z,33.52
2018-05-13T08:51:12.798Z,33.50
2018-05-13T08:53:44.393Z,33.37
2018-05-13T08:56:15.900Z,33.54
2018-05-13T08:58:47.769Z,33.61
2018-05-13T09:01:19.252Z,33.50
2018-05-13T09:03:51.323Z,34.14
2018-05-13T09:06:22.558Z,34.64
2018-05-13T09:08:55.925Z,35.94
2018-05-13T09:11:27.949Z,36.31
2018-05-13T09:14:04.265Z,36.85
2018-05-13T09:16:39.074Z,36.80
2018-05-13T09:19:10.496Z,37.37
2018-05-13T09:21:42.055Z,37.77
2018-05-13T09:24:13.604Z,37.47
2018-05-13T09:26:45.140Z,37.02
2018-05-13T09:29:16.940Z,36.75
2018-05-13T09:31:48.660Z,36.36
2018-05-13T09:34:19.900Z,36.11
2018-05-13T09:36:52.517Z,36.02
2018-05-13T09:39:23.905Z,35.88
2018-05-13T09:41:57.104Z,35.76
2018-05-13T09:44:29.682Z,35.73
2018-05-13T09:47:02.144Z,35.91
2018-05-13T09:49:33.794Z,36.30
2018-05-13T09:52:06.005Z,36.31
2018-05-13T09:54:37.694Z,36.70
2018-05-13T09:57:09.283Z,36.88
2018-05-13T09:59:41.178Z,36.87
2018-05-13T10:02:14.723Z,36.84
2018-05-13T10:04:46.280Z,36.98
2018-05-13T10:07:17.932Z,37.48
2018-05-13T10:09:49.581Z,37.42
2018-05-13T10:12:21.105Z,37.41
2018-05-13T10:14:54.796Z,37.38
2018-05-13T10:17:26.351Z,37.20
2018-05-13T10:20:00.144Z,37.20
2018-05-13T10:22:31.644Z,36.98
2018-05-13T10:25:03.774Z,37.09
2018-05-13T10:27:35.861Z,37.01
2018-05-13T10:30:08.698Z,37.71
2018-05-13T10:32:40.483Z,37.56
2018-05-13T10:35:14.344Z,37.43
2018-05-13T10:37:45.561Z,36.99
2018-05-13T10:40:22.093Z,36.82
2018-05-13T10:42:54.377Z,36.83
2018-05-13T10:45:26.857Z,36.70
2018-05-13T10:48:00.634Z,36.56
2018-05-13T10:50:32.443Z,36.46
2018-05-13T10:53:05.168Z,36.36
2018-05-13T10:55:36.613Z,36.27
2018-05-13T10:58:09.004Z,36.04
2018-05-13T11:00:40.431Z,35.72
2018-05-13T11:03:11.943Z,35.58
2018-05-13T11:05:43.638Z,35.77
2018-05-13T11:08:15.665Z,35.75
2018-05-13T11:10:47.381Z,35.84
2018-05-13T11:13:19.388Z,35.76
2018-05-13T11:15:50.931Z,35.55
2018-05-13T11:18:22.481Z,35.29
2018-05-13T11:20:54.440Z,35.29
2018-05-13T11:23:26.071Z,34.98
2018-05-13T11:26:00.471Z,34.75
2018-05-13T11:28:31.999Z,34.69
2018-05-13T11:31:04.991Z,34.57
2018-05-13T11:33:36.918Z,34.61
2018-05-13T11:36:08.487Z,34.69
2018-05-13T11:38:40.106Z,34.86
2018-05-13T11:41:11.618Z,34.25
2018-05-13T11:43:43.195Z,34.18
2018-05-13T11:46:14.949Z,34.05
2018-05-13T11:48:46.633Z,33.97
2018-05-13T11:51:18.088Z,33.82
2018-05-13T11:53:50.053Z,33.74
2018-05-13T11:56:21.650Z,33.95
2018-05-13T11:58:53.360Z,33.61
2018-05-13T12:01:25.384Z,33.47
2018-05-13T12:03:58.388Z,33.39
2018-05-13T12:06:30.128Z,33.39
2018-05-13T12:09:03.191Z,33.29
2018-05-13T12:11:34.673Z,33.28
2018-05-13T12:14:06.371Z,33.20
2018-05-13T12:16:38.387Z,33.31
2018-05-13T12:19:09.850Z,33.19
2018-05-13T12:21:41.442Z,33.11
2018-05-13T12:24:13.151Z,33.03
2018-05-13T12:26:45.166Z,33.14
2018-05-13T12:29:17.158Z,32.97
2018-05-13T12:31:48.654Z,32.86
2018-05-13T12:34:20.115Z,32.83
2018-05-13T12:36:51.691Z,32.81
2018-05-13T12:39:23.118Z,33.05
2018-05-13T12:41:56.207Z,32.95
2018-05-13T12:44:27.640Z,32.93
2018-05-13T12:47:02.397Z,32.73
2018-05-13T12:49:33.819Z,32.82
2018-05-13T12:52:06.289Z,33.22
2018-05-13T12:54:38.610Z,33.48
2018-05-13T12:57:10.401Z,33.53
2018-05-13T12:59:41.932Z,33.58
2018-05-13T13:02:13.426Z,33.61
2018-05-13T13:04:45.367Z,34.94
2018-05-13T13:07:17.004Z,35.68
2018-05-13T13:09:48.555Z,35.71
2018-05-13T13:12:20.484Z,35.83
2018-05-13T13:14:52.871Z,36.66
2018-05-13T13:17:25.104Z,37.24
2018-05-13T13:19:56.972Z,36.86
2018-05-13T13:22:29.468Z,36.50
2018-05-13T13:25:02.104Z,36.15
2018-05-13T13:27:34.437Z,35.94
2018-05-13T13:30:08.271Z,35.66
2018-05-13T13:32:40.848Z,35.50
2018-05-13T13:35:18.548Z,35.43
2018-05-13T13:37:49.372Z,35.38
2018-05-13T13:40:23.902Z,35.42
2018-05-13T13:42:56.742Z,35.22
2018-05-13T13:45:29.464Z,35.32
2018-05-13T13:48:01.053Z,35.22
2018-05-13T13:50:34.658Z,35.24
2018-05-13T13:53:06.682Z,34.95
2018-05-13T13:55:39.307Z,34.99
2018-05-13T13:58:12.890Z,34.96
2018-05-13T14:00:45.378Z,35.06
2018-05-13T14:03:21.135Z,35.16
2018-05-13T14:05:52.967Z,35.00
2018-05-13T14:08:26.535Z,34.97
2018-05-13T14:10:58.969Z,35.17
2018-05-13T14:13:31.546Z,35.08
2018-05-13T14:16:04.037Z,35.14
2018-05-13T14:18:38.635Z,35.19
2018-05-13T14:21:11.401Z,35.03
2018-05-13T14:23:44.044Z,35.11
2018-05-13T14:26:18.327Z,35.01
2018-05-13T14:28:50.431Z,34.77
2018-05-13T14:31:24.534Z,34.80
2018-05-13T14:33:58.701Z,34.73
2018-05-13T14:36:31.952Z,34.68
2018-05-13T14:39:11.823Z,35.03
2018-05-13T14:41:36.519Z,34.96
2018-05-13T14:44:08.008Z,34.99
2018-05-13T14:46:40.189Z,35.05
2018-05-13T14:49:12.852Z,34.97
2018-05-13T14:51:45.777Z,35.17
2018-05-13T14:54:23.977Z,35.04
2018-05-13T14:56:55.407Z,34.95
2018-05-13T14:59:34.511Z,34.72
2018-05-13T15:02:10.363Z,34.68
2018-05-13T15:04:41.937Z,34.95
2018-05-13T15:07:34.429Z,34.89
2018-05-13T15:10:15.129Z,34.79
2018-05-13T15:12:53.155Z,34.73
2018-05-13T15:15:28.176Z,34.76
2018-05-13T15:18:05.626Z,34.72
2018-05-13T15:20:38.083Z,34.51
2018-05-13T15:23:10.676Z,34.28
2018-05-13T15:25:42.948Z,34.84
2018-05-13T15:28:16.864Z,34.37
2018-05-13T15:30:50.047Z,34.83
2018-05-13T15:33:24.364Z,35.76
2018-05-13T15:35:58.031Z,36.12
2018-05-13T15:38:30.407Z,36.45
2018-05-13T15:41:02.911Z,37.29
2018-05-13T15:43:35.406Z,37.95
2018-05-13T15:46:08.001Z,38.61
2018-05-13T15:48:39.979Z,39.02
2018-05-13T15:51:12.629Z,39.36
2018-05-13T15:53:45.778Z,39.37
2018-05-13T15:56:21.565Z,39.51
2018-05-13T15:58:53.389Z,39.72
2018-05-13T16:01:25.619Z,39.87
2018-05-13T16:03:57.385Z,40.05
2018-05-13T16:06:29.778Z,40.92
2018-05-13T16:09:01.652Z,40.23
2018-05-13T16:11:33.184Z,40.40
2018-05-13T16:14:04.917Z,40.32
2018-05-13T16:16:36.495Z,40.56
2018-05-13T16:19:08.547Z,40.85
2018-05-13T16:21:40.114Z,40.90
2018-05-13T16:24:12.661Z,41.22
2018-05-13T16:26:44.490Z,42.31
2018-05-13T16:29:20.008Z,41.82
2018-05-13T16:31:51.775Z,42.07
2018-05-13T16:34:24.965Z,42.21
2018-05-13T16:36:57.693Z,42.47
2018-05-13T16:39:29.757Z,42.99
2018-05-13T16:42:02.079Z,43.28
2018-05-13T16:44:34.335Z,43.37
2018-05-13T16:47:06.458Z,43.67
2018-05-13T16:49:38.022Z,43.87
2018-05-13T16:52:09.551Z,44.19
2018-05-13T16:54:41.579Z,44.63
2018-05-13T16:57:14.651Z,45.28
2018-05-13T16:59:46.527Z,44.48
2018-05-13T17:02:20.018Z,44.56
2018-05-13T17:04:52.909Z,45.25
2018-05-13T17:07:25.796Z,45.33
2018-05-13T17:09:58.116Z,44.86
2018-05-13T17:12:32.071Z,45.87
2018-05-13T17:15:07.905Z,46.78
2018-05-13T17:17:40.650Z,45.54
2018-05-13T17:20:13.619Z,44.99
2018-05-13T17:22:46.871Z,45.24
2018-05-13T17:25:23.338Z,45.17
2018-05-13T17:27:54.795Z,45.23
2018-05-13T17:30:27.148Z,45.08
2018-05-13T17:32:59.627Z,45.31
2018-05-13T17:35:32.567Z,45.69
2018-05-13T17:38:05.017Z,46.17
2018-05-13T17:40:37.801Z,45.77
2018-05-13T17:43:11.553Z,46.01
2018-05-13T17:45:44.487Z,45.89
2018-05-13T17:48:21.579Z,45.74
2018-05-13T17:50:54.100Z,45.75
2018-05-13T17:53:27.219Z,46.01
2018-05-13T17:56:00.172Z,45.62
2018-05-13T17:58:32.238Z,45.90
2018-05-13T18:01:04.380Z,46.23
2018-05-13T18:03:36.808Z,46.39
2018-05-13T18:06:09.081Z,46.53
2018-05-13T18:08:44.464Z,46.53
2018-05-13T18:11:17.811Z,46.27
2018-05-13T18:13:50.146Z,46.49
2018-05-13T18:16:26.766Z,46.33
2018-05-13T18:18:58.990Z,46.42
2018-05-13T18:21:31.719Z,46.44
2018-05-13T18:24:04.227Z,46.62
2018-05-13T18:26:37.268Z,46.47
2018-05-13T18:29:10.478Z,46.54
2018-05-13T18:31:43.123Z,47.12
2018-05-13T18:34:18.723Z,47.28
2018-05-13T18:36:50.784Z,48.00
2018-05-13T18:39:23.968Z,47.92
2018-05-13T18:41:56.614Z,47.66
2018-05-13T18:44:29.296Z,47.92
2018-05-13T18:47:02.920Z,47.79
2018-05-13T18:49:35.780Z,48.09
2018-05-13T18:52:08.235Z,44.54
2018-05-13T18:54:40.771Z,50.63
2018-05-13T18:57:13.735Z,51.87
2018-05-13T18:59:46.209Z,16.87
